Terminal Aerodrome Forecast
Issued by NWS

Home | Current Version | Previous Version | Text Only | Print | Product List | Glossary On
Versions: 1 2 3 4 5 6 7 8 9 10 11 12
000
FTUS45 KRIW 050500
TAFJAC
TAF
KJAC 050525Z 0506/0606 35006KT P6SM SCT070
     FM051200 VRB05KT P6SM SCT070 BKN120
     FM051800 20008KT P6SM VCSH SCT050 BKN100
     FM052000 VRB10G20KT P6SM VCTS SCT050CB BKN100
     FM060300 VRB06KT P6SM VCSH BKN050
      AMD LTD TO CLD VIS AND WIND=

USA.gov is the U.S. government's official web portal to all federal, state and local government web resources and services.